sensor_id;sensor_type;location;lat;lon;timestamp;pressure;altitude;pressure_sealevel;temperature;humidity
10115;BME280;5097;43.260;27.812;2022-12-07T00:00:03;100348.50;;;9.59;85.49
10115;BME280;5097;43.260;27.812;2022-12-07T00:02:49;100311.22;;;9.47;84.74
10115;BME280;5097;43.260;27.812;2022-12-07T00:05:33;100348.44;;;9.60;85.39
10115;BME280;5097;43.260;27.812;2022-12-07T00:08:17;100314.72;;;9.48;84.53
10115;BME280;5097;43.260;27.812;2022-12-07T00:11:02;100321.63;;;9.69;83.92
10115;BME280;5097;43.260;27.812;2022-12-07T00:13:47;100302.81;;;9.58;83.84
10115;BME280;5097;43.260;27.812;2022-12-07T00:16:35;100338.94;;;9.75;84.13
10115;BME280;5097;43.260;27.812;2022-12-07T00:19:20;100354.16;;;9.89;83.86
10115;BME280;5097;43.260;27.812;2022-12-07T00:22:04;100353.34;;;9.87;83.09
10115;BME280;5097;43.260;27.812;2022-12-07T00:24:48;100357.38;;;9.96;83.80
10115;BME280;5097;43.260;27.812;2022-12-07T00:27:32;100354.56;;;9.99;83.96
10115;BME280;5097;43.260;27.812;2022-12-07T00:30:16;100357.56;;;10.10;83.92
10115;BME280;5097;43.260;27.812;2022-12-07T00:33:00;100358.81;;;10.20;83.58
10115;BME280;5097;43.260;27.812;2022-12-07T00:35:45;100361.47;;;10.20;83.51
10115;BME280;5097;43.260;27.812;2022-12-07T00:38:30;100340.38;;;10.01;84.25
10115;BME280;5097;43.260;27.812;2022-12-07T00:41:16;100350.28;;;9.96;83.96
10115;BME280;5097;43.260;27.812;2022-12-07T00:44:00;100303.44;;;9.82;84.55
10115;BME280;5097;43.260;27.812;2022-12-07T00:46:44;100345.78;;;10.17;83.82
10115;BME280;5097;43.260;27.812;2022-12-07T00:49:28;100323.81;;;9.98;83.43
10115;BME280;5097;43.260;27.812;2022-12-07T00:52:14;100345.38;;;10.07;84.14
10115;BME280;5097;43.260;27.812;2022-12-07T00:54:58;100348.66;;;10.13;84.22
10115;BME280;5097;43.260;27.812;2022-12-07T00:57:42;100341.78;;;10.09;84.15
10115;BME280;5097;43.260;27.812;2022-12-07T01:00:25;100304.66;;;9.94;84.42
10115;BME280;5097;43.260;27.812;2022-12-07T01:03:11;100299.69;;;10.05;83.36
10115;BME280;5097;43.260;27.812;2022-12-07T01:05:56;100333.94;;;10.26;83.27
10115;BME280;5097;43.260;27.812;2022-12-07T01:08:42;100296.22;;;10.05;83.50
10115;BME280;5097;43.260;27.812;2022-12-07T01:11:28;100326.38;;;10.37;83.06
10115;BME280;5097;43.260;27.812;2022-12-07T01:14:12;100291.34;;;10.15;83.05
10115;BME280;5097;43.260;27.812;2022-12-07T01:16:56;100282.50;;;10.16;82.50
10115;BME280;5097;43.260;27.812;2022-12-07T01:19:41;100313.28;;;10.34;83.02
10115;BME280;5097;43.260;27.812;2022-12-07T01:22:25;100284.91;;;10.20;82.60
10115;BME280;5097;43.260;27.812;2022-12-07T01:25:11;100277.97;;;10.18;82.59
10115;BME280;5097;43.260;27.812;2022-12-07T01:27:55;100313.41;;;10.31;83.48
10115;BME280;5097;43.260;27.812;2022-12-07T01:30:39;100303.31;;;10.22;83.27
10115;BME280;5097;43.260;27.812;2022-12-07T01:33:24;100301.53;;;10.22;82.93
10115;BME280;5097;43.260;27.812;2022-12-07T01:36:13;100264.34;;;9.90;82.82
10115;BME280;5097;43.260;27.812;2022-12-07T01:38:59;100290.25;;;10.19;82.70
10115;BME280;5097;43.260;27.812;2022-12-07T01:41:45;100292.34;;;10.12;83.27
10115;BME280;5097;43.260;27.812;2022-12-07T01:44:29;100255.00;;;9.66;84.54
10115;BME280;5097;43.260;27.812;2022-12-07T01:47:14;100254.41;;;9.78;84.18
10115;BME280;5097;43.260;27.812;2022-12-07T01:49:58;100289.00;;;10.09;83.81
10115;BME280;5097;43.260;27.812;2022-12-07T01:52:45;100287.69;;;10.17;83.98
10115;BME280;5097;43.260;27.812;2022-12-07T01:55:32;100240.09;;;10.01;83.55
10115;BME280;5097;43.260;27.812;2022-12-07T01:58:19;100283.31;;;10.35;83.12
10115;BME280;5097;43.260;27.812;2022-12-07T02:01:04;100245.22;;;10.22;83.13
10115;BME280;5097;43.260;27.812;2022-12-07T02:03:49;100279.13;;;10.49;82.74
10115;BME280;5097;43.260;27.812;2022-12-07T02:06:35;100234.19;;;10.31;82.84
10115;BME280;5097;43.260;27.812;2022-12-07T02:09:21;100238.44;;;10.35;82.25
10115;BME280;5097;43.260;27.812;2022-12-07T02:12:05;100252.50;;;10.36;82.11
10115;BME280;5097;43.260;27.812;2022-12-07T02:14:51;100271.91;;;10.52;81.96
10115;BME280;5097;43.260;27.812;2022-12-07T02:17:40;100240.13;;;10.36;81.02
10115;BME280;5097;43.260;27.812;2022-12-07T02:20:31;100275.47;;;10.51;81.65
10115;BME280;5097;43.260;27.812;2022-12-07T02:23:55;100273.84;;;10.49;81.09
10115;BME280;5097;43.260;27.812;2022-12-07T02:29:58;100247.97;;;10.38;81.60
10115;BME280;5097;43.260;27.812;2022-12-07T02:32:51;100233.00;;;10.38;81.85
10115;BME280;5097;43.260;27.812;2022-12-07T02:35:41;100281.63;;;10.69;81.90
10115;BME280;5097;43.260;27.812;2022-12-07T02:38:31;100282.41;;;10.71;81.75
10115;BME280;5097;43.260;27.812;2022-12-07T02:41:22;100266.88;;;10.65;81.92
10115;BME280;5097;43.260;27.812;2022-12-07T02:44:10;100276.19;;;10.72;81.75
10115;BME280;5097;43.260;27.812;2022-12-07T02:47:16;100274.47;;;10.71;80.58
10115;BME280;5097;43.260;27.812;2022-12-07T02:50:03;100271.81;;;10.71;80.66
10115;BME280;5097;43.260;27.812;2022-12-07T02:52:47;100271.28;;;10.47;81.72
10115;BME280;5097;43.260;27.812;2022-12-07T02:55:41;100273.97;;;10.28;82.23
10115;BME280;5097;43.260;27.812;2022-12-07T02:58:35;100260.06;;;10.24;81.92
10115;BME280;5097;43.260;27.812;2022-12-07T03:01:28;100256.25;;;10.13;82.09
10115;BME280;5097;43.260;27.812;2022-12-07T03:04:27;100221.31;;;10.07;81.80
10115;BME280;5097;43.260;27.812;2022-12-07T03:07:21;100257.63;;;10.39;81.57
10115;BME280;5097;43.260;27.812;2022-12-07T03:10:12;100253.88;;;10.43;81.82
10115;BME280;5097;43.260;27.812;2022-12-07T03:13:03;100252.97;;;10.44;81.99
10115;BME280;5097;43.260;27.812;2022-12-07T03:15:54;100261.72;;;10.45;81.54
10115;BME280;5097;43.260;27.812;2022-12-07T03:18:44;100257.25;;;10.47;81.55
10115;BME280;5097;43.260;27.812;2022-12-07T03:21:33;100259.63;;;10.51;81.54
10115;BME280;5097;43.260;27.812;2022-12-07T03:24:21;100250.94;;;10.49;81.29
10115;BME280;5097;43.260;27.812;2022-12-07T03:27:09;100262.75;;;10.60;81.23
10115;BME280;5097;43.260;27.812;2022-12-07T03:30:00;100261.13;;;10.57;80.76
10115;BME280;5097;43.260;27.812;2022-12-07T03:32:48;100256.78;;;10.56;81.01
10115;BME280;5097;43.260;27.812;2022-12-07T03:35:38;100248.94;;;10.54;81.15
10115;BME280;5097;43.260;27.812;2022-12-07T03:38:30;100218.31;;;10.33;81.15
10115;BME280;5097;43.260;27.812;2022-12-07T03:41:19;100250.00;;;10.33;81.52
10115;BME280;5097;43.260;27.812;2022-12-07T03:44:06;100252.28;;;10.21;81.85
10115;BME280;5097;43.260;27.812;2022-12-07T03:46:58;100253.94;;;10.24;81.47
10115;BME280;5097;43.260;27.812;2022-12-07T03:49:49;100236.28;;;10.07;81.81
10115;BME280;5097;43.260;27.812;2022-12-07T03:52:39;100263.16;;;10.15;81.37
10115;BME280;5097;43.260;27.812;2022-12-07T03:55:28;100247.06;;;10.02;81.94
10115;BME280;5097;43.260;27.812;2022-12-07T03:58:16;100242.09;;;9.96;81.64
10115;BME280;5097;43.260;27.812;2022-12-07T04:01:01;100258.91;;;10.13;81.76
10115;BME280;5097;43.260;27.812;2022-12-07T04:03:45;100244.13;;;10.09;81.56
10115;BME280;5097;43.260;27.812;2022-12-07T04:06:29;100240.94;;;10.02;81.60
10115;BME280;5097;43.260;27.812;2022-12-07T04:09:12;100243.97;;;9.94;81.79
10115;BME280;5097;43.260;27.812;2022-12-07T04:11:58;100204.50;;;9.54;82.03
10115;BME280;5097;43.260;27.812;2022-12-07T04:14:42;100250.63;;;9.65;82.43
10115;BME280;5097;43.260;27.812;2022-12-07T04:17:26;100239.31;;;9.44;82.54
10115;BME280;5097;43.260;27.812;2022-12-07T04:20:11;100242.63;;;9.28;83.47
10115;BME280;5097;43.260;27.812;2022-12-07T04:22:55;100232.88;;;9.30;83.05
10115;BME280;5097;43.260;27.812;2022-12-07T04:25:39;100232.09;;;9.28;82.93
10115;BME280;5097;43.260;27.812;2022-12-07T04:28:25;100235.09;;;9.20;82.61
10115;BME280;5097;43.260;27.812;2022-12-07T04:31:09;100222.75;;;9.02;82.56
10115;BME280;5097;43.260;27.812;2022-12-07T04:33:52;100238.72;;;8.99;82.41
10115;BME280;5097;43.260;27.812;2022-12-07T04:36:37;100238.75;;;8.97;83.37
10115;BME280;5097;43.260;27.812;2022-12-07T04:39:24;100244.09;;;8.96;82.59
10115;BME280;5097;43.260;27.812;2022-12-07T04:42:08;100238.97;;;8.93;82.79
10115;BME280;5097;43.260;27.812;2022-12-07T04:44:53;100248.00;;;8.87;82.52
10115;BME280;5097;43.260;27.812;2022-12-07T04:47:37;100239.06;;;8.91;82.74
10115;BME280;5097;43.260;27.812;2022-12-07T04:50:20;100205.75;;;8.69;82.55
10115;BME280;5097;43.260;27.812;2022-12-07T04:53:04;100241.38;;;8.97;82.44
10115;BME280;5097;43.260;27.812;2022-12-07T04:55:48;100237.06;;;8.76;83.48
10115;BME280;5097;43.260;27.812;2022-12-07T04:58:32;100235.34;;;8.75;83.60
10115;BME280;5097;43.260;27.812;2022-12-07T05:01:17;100243.88;;;8.61;83.16
10115;BME280;5097;43.260;27.812;2022-12-07T05:04:02;100222.31;;;8.30;84.54
10115;BME280;5097;43.260;27.812;2022-12-07T05:06:46;100251.00;;;8.36;84.38
10115;BME280;5097;43.260;27.812;2022-12-07T05:09:29;100256.13;;;8.39;83.60
10115;BME280;5097;43.260;27.812;2022-12-07T05:12:13;100236.03;;;7.96;84.80
10115;BME280;5097;43.260;27.812;2022-12-07T05:14:57;100252.84;;;7.92;85.66
10115;BME280;5097;43.260;27.812;2022-12-07T05:17:42;100256.19;;;7.95;85.78
10115;BME280;5097;43.260;27.812;2022-12-07T05:20:26;100264.53;;;8.07;85.04
10115;BME280;5097;43.260;27.812;2022-12-07T05:23:10;100138.34;;;7.16;84.10
10115;BME280;5097;43.260;27.812;2022-12-07T05:25:54;100267.44;;;7.77;85.08
10115;BME280;5097;43.260;27.812;2022-12-07T05:28:38;100263.91;;;7.78;84.82
10115;BME280;5097;43.260;27.812;2022-12-07T05:31:22;100245.97;;;7.19;87.21
10115;BME280;5097;43.260;27.812;2022-12-07T05:34:08;100249.09;;;7.05;88.32
10115;BME280;5097;43.260;27.812;2022-12-07T05:36:52;100257.66;;;7.11;89.42
10115;BME280;5097;43.260;27.812;2022-12-07T05:39:36;100248.19;;;7.30;88.02
10115;BME280;5097;43.260;27.812;2022-12-07T05:42:20;100238.41;;;7.34;87.52
10115;BME280;5097;43.260;27.812;2022-12-07T05:45:05;100218.81;;;7.19;87.72
10115;BME280;5097;43.260;27.812;2022-12-07T05:47:49;100249.44;;;7.44;87.27
10115;BME280;5097;43.260;27.812;2022-12-07T05:50:34;100258.06;;;7.24;88.39
10115;BME280;5097;43.260;27.812;2022-12-07T05:53:18;100262.03;;;7.35;87.90
10115;BME280;5097;43.260;27.812;2022-12-07T05:56:05;100241.84;;;7.58;87.50
10115;BME280;5097;43.260;27.812;2022-12-07T05:58:49;100232.97;;;7.62;86.97
10115;BME280;5097;43.260;27.812;2022-12-07T06:01:51;100248.84;;;7.59;87.04
10115;BME280;5097;43.260;27.812;2022-12-07T06:04:37;100254.78;;;7.41;87.06
10115;BME280;5097;43.260;27.812;2022-12-07T06:07:23;100263.38;;;7.46;87.46
10115;BME280;5097;43.260;27.812;2022-12-07T06:10:07;100250.56;;;7.60;87.23
10115;BME280;5097;43.260;27.812;2022-12-07T06:12:51;100248.97;;;7.56;87.10
10115;BME280;5097;43.260;27.812;2022-12-07T06:15:35;100209.69;;;7.29;87.10
10115;BME280;5097;43.260;27.812;2022-12-07T06:18:19;100210.25;;;7.37;87.06
10115;BME280;5097;43.260;27.812;2022-12-07T06:21:03;100248.88;;;7.81;86.47
10115;BME280;5097;43.260;27.812;2022-12-07T06:23:49;100209.16;;;7.65;86.02
10115;BME280;5097;43.260;27.812;2022-12-07T06:26:33;100224.88;;;7.67;85.98
10115;BME280;5097;43.260;27.812;2022-12-07T06:29:17;100260.50;;;7.76;86.84
10115;BME280;5097;43.260;27.812;2022-12-07T06:32:02;100216.31;;;7.62;86.15
10115;BME280;5097;43.260;27.812;2022-12-07T06:34:47;100258.44;;;8.04;85.89
10115;BME280;5097;43.260;27.812;2022-12-07T06:37:31;100223.53;;;7.79;86.39
10115;BME280;5097;43.260;27.812;2022-12-07T06:40:16;100267.63;;;8.16;85.74
10115;BME280;5097;43.260;27.812;2022-12-07T06:43:00;100220.09;;;7.77;85.95
10115;BME280;5097;43.260;27.812;2022-12-07T06:45:44;100272.09;;;8.14;86.99
10115;BME280;5097;43.260;27.812;2022-12-07T06:48:28;100270.09;;;8.42;86.42
10115;BME280;5097;43.260;27.812;2022-12-07T06:51:12;100218.63;;;8.34;86.32
10115;BME280;5097;43.260;27.812;2022-12-07T06:53:56;100273.69;;;8.82;85.69
10115;BME280;5097;43.260;27.812;2022-12-07T06:56:42;100258.00;;;8.99;85.27
10115;BME280;5097;43.260;27.812;2022-12-07T06:59:26;100265.91;;;8.99;84.35
10115;BME280;5097;43.260;27.812;2022-12-07T07:02:10;100221.78;;;8.84;85.32
10115;BME280;5097;43.260;27.812;2022-12-07T07:04:54;100230.84;;;8.97;85.76
10115;BME280;5097;43.260;27.812;2022-12-07T07:07:38;100226.91;;;9.46;84.29
10115;BME280;5097;43.260;27.812;2022-12-07T07:10:42;100252.63;;;9.96;82.65
10115;BME280;5097;43.260;27.812;2022-12-07T07:13:27;100228.59;;;10.02;82.80
10115;BME280;5097;43.260;27.812;2022-12-07T07:16:12;100225.25;;;10.53;81.53
10115;BME280;5097;43.260;27.812;2022-12-07T07:18:56;100267.25;;;10.75;79.09
10115;BME280;5097;43.260;27.812;2022-12-07T07:21:40;100217.09;;;10.91;79.35
10115;BME280;5097;43.260;27.812;2022-12-07T07:24:24;100221.81;;;10.51;79.36
10115;BME280;5097;43.260;27.812;2022-12-07T07:27:08;100219.28;;;10.83;78.18
10115;BME280;5097;43.260;27.812;2022-12-07T07:29:53;100211.56;;;10.45;78.25
10115;BME280;5097;43.260;27.812;2022-12-07T07:32:38;100259.69;;;11.02;77.95
10115;BME280;5097;43.260;27.812;2022-12-07T07:35:22;100258.59;;;11.06;76.26
10115;BME280;5097;43.260;27.812;2022-12-07T07:38:07;100219.41;;;10.64;75.61
10115;BME280;5097;43.260;27.812;2022-12-07T07:40:50;100260.38;;;10.88;76.42
10115;BME280;5097;43.260;27.812;2022-12-07T07:43:34;100226.59;;;10.78;75.55
10115;BME280;5097;43.260;27.812;2022-12-07T07:46:20;100269.63;;;10.97;76.33
10115;BME280;5097;43.260;27.812;2022-12-07T07:49:04;100246.06;;;10.93;75.87
10115;BME280;5097;43.260;27.812;2022-12-07T07:51:48;100264.00;;;11.03;76.39
10115;BME280;5097;43.260;27.812;2022-12-07T07:54:32;100276.25;;;11.22;75.56
10115;BME280;5097;43.260;27.812;2022-12-07T07:57:16;100270.56;;;11.30;75.17
10115;BME280;5097;43.260;27.812;2022-12-07T08:00:01;100268.22;;;11.23;74.94
10115;BME280;5097;43.260;27.812;2022-12-07T08:02:56;100239.91;;;11.10;73.90
10115;BME280;5097;43.260;27.812;2022-12-07T08:05:40;100240.16;;;10.87;74.08
10115;BME280;5097;43.260;27.812;2022-12-07T08:08:24;100250.34;;;10.95;74.97
10115;BME280;5097;43.260;27.812;2022-12-07T08:11:09;100288.50;;;11.40;74.72
10115;BME280;5097;43.260;27.812;2022-12-07T08:13:53;100274.50;;;11.54;73.02
10115;BME280;5097;43.260;27.812;2022-12-07T08:16:37;100227.16;;;11.50;72.75
10115;BME280;5097;43.260;27.812;2022-12-07T08:19:23;100274.78;;;12.14;72.36
10115;BME280;5097;43.260;27.812;2022-12-07T08:22:07;100243.34;;;12.07;70.55
10115;BME280;5097;43.260;27.812;2022-12-07T08:24:51;100241.63;;;11.74;71.18
10115;BME280;5097;43.260;27.812;2022-12-07T08:27:35;100237.47;;;12.02;70.71
10115;BME280;5097;43.260;27.812;2022-12-07T08:30:19;100256.66;;;12.22;70.66
10115;BME280;5097;43.260;27.812;2022-12-07T08:33:04;100250.38;;;12.09;68.07
10115;BME280;5097;43.260;27.812;2022-12-07T08:35:49;100224.91;;;12.81;68.06
10115;BME280;5097;43.260;27.812;2022-12-07T08:38:34;100236.81;;;12.74;67.33
10115;BME280;5097;43.260;27.812;2022-12-07T08:41:18;100273.53;;;12.80;66.94
10115;BME280;5097;43.260;27.812;2022-12-07T08:44:02;100188.19;;;12.30;67.45
10115;BME280;5097;43.260;27.812;2022-12-07T08:46:47;100271.38;;;12.87;67.11
10115;BME280;5097;43.260;27.812;2022-12-07T08:49:35;100232.75;;;12.83;66.22
10115;BME280;5097;43.260;27.812;2022-12-07T08:52:22;100235.81;;;12.46;67.34
10115;BME280;5097;43.260;27.812;2022-12-07T08:55:07;100236.06;;;12.27;68.48
10115;BME280;5097;43.260;27.812;2022-12-07T08:57:53;100232.34;;;12.60;67.47
10115;BME280;5097;43.260;27.812;2022-12-07T09:00:37;100251.09;;;12.86;67.14
10115;BME280;5097;43.260;27.812;2022-12-07T09:03:21;100216.69;;;12.11;69.08
10115;BME280;5097;43.260;27.812;2022-12-07T09:06:05;100207.28;;;12.21;69.12
10115;BME280;5097;43.260;27.812;2022-12-07T09:08:53;100249.13;;;12.75;75.01
10115;BME280;5097;43.260;27.812;2022-12-07T09:11:38;100207.16;;;12.53;71.02
10115;BME280;5097;43.260;27.812;2022-12-07T09:14:22;100189.91;;;12.46;70.51
10115;BME280;5097;43.260;27.812;2022-12-07T09:17:07;100229.25;;;13.11;66.45
10115;BME280;5097;43.260;27.812;2022-12-07T09:19:52;100235.13;;;13.02;66.22
10115;BME280;5097;43.260;27.812;2022-12-07T09:22:36;100224.34;;;12.46;68.10
10115;BME280;5097;43.260;27.812;2022-12-07T09:25:21;100188.28;;;12.29;68.45
10115;BME280;5097;43.260;27.812;2022-12-07T09:28:05;100225.53;;;12.26;68.95
10115;BME280;5097;43.260;27.812;2022-12-07T09:30:49;100228.41;;;12.37;71.53
10115;BME280;5097;43.260;27.812;2022-12-07T09:33:54;100221.41;;;12.36;70.13
10115;BME280;5097;43.260;27.812;2022-12-07T09:36:39;100236.34;;;12.67;68.89
10115;BME280;5097;43.260;27.812;2022-12-07T09:39:23;100177.63;;;12.45;68.78
10115;BME280;5097;43.260;27.812;2022-12-07T09:42:08;100174.44;;;12.54;67.87
10115;BME280;5097;43.260;27.812;2022-12-07T09:45:02;100174.59;;;12.36;68.96
10115;BME280;5097;43.260;27.812;2022-12-07T09:47:48;100201.78;;;12.69;69.67
10115;BME280;5097;43.260;27.812;2022-12-07T09:50:32;100042.13;;;12.07;68.09
10115;BME280;5097;43.260;27.812;2022-12-07T09:53:19;100167.78;;;12.61;69.57
10115;BME280;5097;43.260;27.812;2022-12-07T09:56:05;100195.16;;;12.90;69.13
10115;BME280;5097;43.260;27.812;2022-12-07T09:58:51;100193.91;;;13.25;68.08
10115;BME280;5097;43.260;27.812;2022-12-07T10:01:38;100191.47;;;13.07;67.27
10115;BME280;5097;43.260;27.812;2022-12-07T10:04:24;100182.38;;;12.83;69.89
10115;BME280;5097;43.260;27.812;2022-12-07T10:07:09;100165.47;;;13.27;67.17
10115;BME280;5097;43.260;27.812;2022-12-07T10:09:53;100188.78;;;13.51;66.41
10115;BME280;5097;43.260;27.812;2022-12-07T10:12:53;100181.00;;;13.33;67.88
10115;BME280;5097;43.260;27.812;2022-12-07T10:15:44;100179.44;;;13.58;66.75
10115;BME280;5097;43.260;27.812;2022-12-07T10:18:30;100179.66;;;13.55;66.19
10115;BME280;5097;43.260;27.812;2022-12-07T10:21:16;100181.03;;;14.15;64.72
10115;BME280;5097;43.260;27.812;2022-12-07T10:24:04;100144.44;;;14.06;63.89
10115;BME280;5097;43.260;27.812;2022-12-07T10:26:50;100176.31;;;14.06;65.05
10115;BME280;5097;43.260;27.812;2022-12-07T10:29:37;100158.78;;;14.03;64.40
10115;BME280;5097;43.260;27.812;2022-12-07T10:32:31;100160.50;;;14.04;65.57
10115;BME280;5097;43.260;27.812;2022-12-07T10:35:23;100139.16;;;14.19;62.67
10115;BME280;5097;43.260;27.812;2022-12-07T10:38:16;100158.81;;;14.16;63.73
10115;BME280;5097;43.260;27.812;2022-12-07T10:41:04;100109.53;;;13.45;65.73
10115;BME280;5097;43.260;27.812;2022-12-07T10:43:51;100108.94;;;13.54;66.88
10115;BME280;5097;43.260;27.812;2022-12-07T10:47:12;100150.53;;;14.21;64.05
10115;BME280;5097;43.260;27.812;2022-12-07T10:50:29;100158.94;;;13.74;64.01
10115;BME280;5097;43.260;27.812;2022-12-07T10:53:27;100148.34;;;13.87;64.54
10115;BME280;5097;43.260;27.812;2022-12-07T10:56:29;100140.97;;;14.31;63.00
10115;BME280;5097;43.260;27.812;2022-12-07T10:59:50;100143.09;;;14.13;63.11
10115;BME280;5097;43.260;27.812;2022-12-07T11:02:47;100136.91;;;14.13;63.68
10115;BME280;5097;43.260;27.812;2022-12-07T11:05:40;100135.66;;;14.31;62.08
10115;BME280;5097;43.260;27.812;2022-12-07T11:08:39;100120.75;;;14.03;61.19
10115;BME280;5097;43.260;27.812;2022-12-07T11:11:32;100122.34;;;14.05;62.56
10115;BME280;5097;43.260;27.812;2022-12-07T11:14:22;100116.50;;;14.00;61.80
10115;BME280;5097;43.260;27.812;2022-12-07T11:17:13;100115.84;;;13.97;63.23
10115;BME280;5097;43.260;27.812;2022-12-07T11:20:05;100110.38;;;14.25;61.40
10115;BME280;5097;43.260;27.812;2022-12-07T11:23:01;100073.06;;;14.01;61.64
10115;BME280;5097;43.260;27.812;2022-12-07T11:25:53;100111.00;;;14.16;61.56
10115;BME280;5097;43.260;27.812;2022-12-07T11:28:55;100106.88;;;13.45;64.11
10115;BME280;5097;43.260;27.812;2022-12-07T11:31:54;100112.75;;;13.77;62.84
10115;BME280;5097;43.260;27.812;2022-12-07T11:34:48;100108.78;;;13.70;64.36
10115;BME280;5097;43.260;27.812;2022-12-07T11:37:35;100102.91;;;13.92;62.95
10115;BME280;5097;43.260;27.812;2022-12-07T11:40:26;100086.50;;;13.72;63.29
10115;BME280;5097;43.260;27.812;2022-12-07T11:43:18;100073.66;;;13.79;62.02
10115;BME280;5097;43.260;27.812;2022-12-07T11:46:08;100092.69;;;14.12;62.68
10115;BME280;5097;43.260;27.812;2022-12-07T11:49:01;100098.69;;;14.28;61.89
10115;BME280;5097;43.260;27.812;2022-12-07T11:51:48;100093.13;;;13.93;63.10
10115;BME280;5097;43.260;27.812;2022-12-07T11:54:35;100088.25;;;14.25;62.73
10115;BME280;5097;43.260;27.812;2022-12-07T11:57:28;100089.97;;;14.13;61.91
10115;BME280;5097;43.260;27.812;2022-12-07T12:00:16;100092.69;;;14.12;61.84
10115;BME280;5097;43.260;27.812;2022-12-07T12:03:05;100082.94;;;14.12;62.24
10115;BME280;5097;43.260;27.812;2022-12-07T12:05:53;100087.25;;;13.74;63.53
10115;BME280;5097;43.260;27.812;2022-12-07T12:08:39;100086.41;;;13.87;63.19
10115;BME280;5097;43.260;27.812;2022-12-07T12:12:05;100076.97;;;13.96;62.85
10115;BME280;5097;43.260;27.812;2022-12-07T12:15:29;100029.44;;;13.25;64.48
10115;BME280;5097;43.260;27.812;2022-12-07T12:18:30;100069.00;;;13.83;63.25
10115;BME280;5097;43.260;27.812;2022-12-07T12:21:19;100029.34;;;13.67;62.52
10115;BME280;5097;43.260;27.812;2022-12-07T12:24:11;100071.19;;;13.63;64.66
10115;BME280;5097;43.260;27.812;2022-12-07T12:27:01;100075.41;;;13.53;63.20
10115;BME280;5097;43.260;27.812;2022-12-07T12:29:52;100063.03;;;13.39;64.67
10115;BME280;5097;43.260;27.812;2022-12-07T12:32:40;100067.09;;;13.45;64.51
10115;BME280;5097;43.260;27.812;2022-12-07T12:35:30;100063.69;;;13.43;64.64
10115;BME280;5097;43.260;27.812;2022-12-07T12:38:30;100068.78;;;13.46;64.42
10115;BME280;5097;43.260;27.812;2022-12-07T12:45:18;100056.63;;;13.56;63.50
10115;BME280;5097;43.260;27.812;2022-12-07T12:48:10;100060.63;;;13.49;64.14
10115;BME280;5097;43.260;27.812;2022-12-07T12:51:36;100062.19;;;13.38;64.15
10115;BME280;5097;43.260;27.812;2022-12-07T12:54:22;100065.53;;;13.55;63.91
10115;BME280;5097;43.260;27.812;2022-12-07T12:57:11;100052.66;;;13.49;64.47
10115;BME280;5097;43.260;27.812;2022-12-07T12:59:59;100056.00;;;13.65;64.08
10115;BME280;5097;43.260;27.812;2022-12-07T13:02:51;100021.75;;;13.07;64.66
10115;BME280;5097;43.260;27.812;2022-12-07T13:05:37;100019.28;;;13.04;64.19
10115;BME280;5097;43.260;27.812;2022-12-07T13:08:22;100062.47;;;13.06;65.53
10115;BME280;5097;43.260;27.812;2022-12-07T13:11:17;100010.75;;;12.72;65.31
10115;BME280;5097;43.260;27.812;2022-12-07T13:17:58;100044.75;;;13.34;64.36
10115;BME280;5097;43.260;27.812;2022-12-07T13:20:48;100007.59;;;13.34;63.76
10115;BME280;5097;43.260;27.812;2022-12-07T13:23:33;100043.56;;;13.53;64.43
10115;BME280;5097;43.260;27.812;2022-12-07T13:26:21;100005.53;;;13.39;64.48
10115;BME280;5097;43.260;27.812;2022-12-07T13:29:11;100009.00;;;13.13;64.55
10115;BME280;5097;43.260;27.812;2022-12-07T13:31:56;100012.81;;;13.08;63.62
10115;BME280;5097;43.260;27.812;2022-12-07T13:34:41;100050.06;;;13.34;63.63
10115;BME280;5097;43.260;27.812;2022-12-07T13:37:28;100023.72;;;13.31;63.38
10115;BME280;5097;43.260;27.812;2022-12-07T13:40:23;100013.91;;;13.19;63.87
10115;BME280;5097;43.260;27.812;2022-12-07T13:43:14;100005.25;;;13.30;63.22
10115;BME280;5097;43.260;27.812;2022-12-07T13:45:59;100014.25;;;13.14;63.96
10115;BME280;5097;43.260;27.812;2022-12-07T13:48:46;100018.63;;;13.28;63.75
10115;BME280;5097;43.260;27.812;2022-12-07T13:51:34;99995.75;;;13.13;64.16
10115;BME280;5097;43.260;27.812;2022-12-07T13:54:21;100016.91;;;13.27;63.74
10115;BME280;5097;43.260;27.812;2022-12-07T13:57:06;100016.47;;;13.20;63.71
10115;BME280;5097;43.260;27.812;2022-12-07T13:59:50;100058.78;;;13.36;63.83
10115;BME280;5097;43.260;27.812;2022-12-07T14:02:35;100043.31;;;13.16;63.99
10115;BME280;5097;43.260;27.812;2022-12-07T14:05:28;100013.94;;;12.91;64.34
10115;BME280;5097;43.260;27.812;2022-12-07T14:08:22;100059.06;;;13.04;64.52
10115;BME280;5097;43.260;27.812;2022-12-07T14:11:13;100056.47;;;12.90;64.61
10115;BME280;5097;43.260;27.812;2022-12-07T14:14:02;100057.56;;;12.86;65.60
10115;BME280;5097;43.260;27.812;2022-12-07T14:16:57;100058.56;;;12.85;65.55
10115;BME280;5097;43.260;27.812;2022-12-07T14:19:48;100060.84;;;12.77;65.85
10115;BME280;5097;43.260;27.812;2022-12-07T14:22:34;100036.44;;;12.57;65.74
10115;BME280;5097;43.260;27.812;2022-12-07T14:25:20;100047.19;;;12.68;66.20
10115;BME280;5097;43.260;27.812;2022-12-07T14:28:23;100053.47;;;12.67;66.44
10115;BME280;5097;43.260;27.812;2022-12-07T14:31:11;100051.09;;;12.63;66.91
10115;BME280;5097;43.260;27.812;2022-12-07T14:34:09;100051.56;;;12.55;67.10
10115;BME280;5097;43.260;27.812;2022-12-07T14:36:54;100047.13;;;12.41;67.09
10115;BME280;5097;43.260;27.812;2022-12-07T14:39:38;100012.63;;;12.14;66.82
10115;BME280;5097;43.260;27.812;2022-12-07T14:42:24;100040.78;;;12.29;67.42
10115;BME280;5097;43.260;27.812;2022-12-07T14:45:16;100017.72;;;12.02;67.88
10115;BME280;5097;43.260;27.812;2022-12-07T14:48:00;100021.19;;;11.88;69.19
10115;BME280;5097;43.260;27.812;2022-12-07T14:51:04;100034.88;;;11.81;69.83